sensor_id;sensor_type;location;lat;lon;timestamp;temperature;humidity
78649;DHT22;67962;47.310;9.642;2024-01-15T00:01:33;2.90;76.30
78649;DHT22;67962;47.310;9.642;2024-01-15T00:04:00;2.90;76.40
78649;DHT22;67962;47.310;9.642;2024-01-15T00:06:25;3.00;76.50
78649;DHT22;67962;47.310;9.642;2024-01-15T00:08:52;3.00;76.60
78649;DHT22;67962;47.310;9.642;2024-01-15T00:11:18;3.00;76.60
78649;DHT22;67962;47.310;9.642;2024-01-15T00:13:43;3.10;76.40
78649;DHT22;67962;47.310;9.642;2024-01-15T00:16:09;3.10;76.30
78649;DHT22;67962;47.310;9.642;2024-01-15T00:18:35;3.10;76.40
78649;DHT22;67962;47.310;9.642;2024-01-15T00:21:01;3.10;76.70
78649;DHT22;67962;47.310;9.642;2024-01-15T00:23:27;3.10;76.70
78649;DHT22;67962;47.310;9.642;2024-01-15T00:25:53;3.00;77.10
78649;DHT22;67962;47.310;9.642;2024-01-15T00:28:18;2.90;77.40
78649;DHT22;67962;47.310;9.642;2024-01-15T00:30:44;2.90;77.70
78649;DHT22;67962;47.310;9.642;2024-01-15T00:33:09;3.00;77.70
78649;DHT22;67962;47.310;9.642;2024-01-15T00:35:37;3.10;77.60
78649;DHT22;67962;47.310;9.642;2024-01-15T00:38:03;3.20;77.40
78649;DHT22;67962;47.310;9.642;2024-01-15T00:40:29;3.10;77.40
78649;DHT22;67962;47.310;9.642;2024-01-15T00:42:54;3.10;77.40
78649;DHT22;67962;47.310;9.642;2024-01-15T00:45:20;3.10;77.50
78649;DHT22;67962;47.310;9.642;2024-01-15T00:47:46;3.10;77.40
78649;DHT22;67962;47.310;9.642;2024-01-15T00:50:12;3.20;77.50
78649;DHT22;67962;47.310;9.642;2024-01-15T00:52:38;3.20;77.40
78649;DHT22;67962;47.310;9.642;2024-01-15T00:55:03;3.30;77.50
78649;DHT22;67962;47.310;9.642;2024-01-15T00:57:29;3.20;77.50
78649;DHT22;67962;47.310;9.642;2024-01-15T00:59:55;3.20;77.80
78649;DHT22;67962;47.310;9.642;2024-01-15T01:02:21;3.20;77.80
78649;DHT22;67962;47.310;9.642;2024-01-15T01:04:46;3.20;77.80
78649;DHT22;67962;47.310;9.642;2024-01-15T01:07:12;3.20;78.00
78649;DHT22;67962;47.310;9.642;2024-01-15T01:09:38;3.20;78.10
78649;DHT22;67962;47.310;9.642;2024-01-15T01:12:03;3.20;78.20
78649;DHT22;67962;47.310;9.642;2024-01-15T01:14:29;3.20;78.40
78649;DHT22;67962;47.310;9.642;2024-01-15T01:16:55;3.30;78.60
78649;DHT22;67962;47.310;9.642;2024-01-15T01:19:20;3.30;78.30
78649;DHT22;67962;47.310;9.642;2024-01-15T01:21:46;3.30;78.10
78649;DHT22;67962;47.310;9.642;2024-01-15T01:24:12;3.40;78.20
78649;DHT22;67962;47.310;9.642;2024-01-15T01:26:37;3.40;77.90
78649;DHT22;67962;47.310;9.642;2024-01-15T01:29:03;3.50;77.90
78649;DHT22;67962;47.310;9.642;2024-01-15T01:31:29;3.50;77.60
78649;DHT22;67962;47.310;9.642;2024-01-15T01:33:54;3.50;77.30
78649;DHT22;67962;47.310;9.642;2024-01-15T01:36:20;3.60;75.10
78649;DHT22;67962;47.310;9.642;2024-01-15T01:38:46;3.50;75.80
78649;DHT22;67962;47.310;9.642;2024-01-15T01:41:11;3.50;76.50
78649;DHT22;67962;47.310;9.642;2024-01-15T01:43:37;3.40;77.00
78649;DHT22;67962;47.310;9.642;2024-01-15T01:46:03;3.40;75.70
78649;DHT22;67962;47.310;9.642;2024-01-15T01:48:29;3.40;76.30
78649;DHT22;67962;47.310;9.642;2024-01-15T01:50:58;3.40;76.50
78649;DHT22;67962;47.310;9.642;2024-01-15T01:53:26;3.40;77.20
78649;DHT22;67962;47.310;9.642;2024-01-15T01:55:52;3.30;76.80
78649;DHT22;67962;47.310;9.642;2024-01-15T01:58:19;3.40;76.90
78649;DHT22;67962;47.310;9.642;2024-01-15T02:00:46;3.40;77.90
78649;DHT22;67962;47.310;9.642;2024-01-15T02:03:12;3.50;76.90
78649;DHT22;67962;47.310;9.642;2024-01-15T02:05:39;3.40;77.00
78649;DHT22;67962;47.310;9.642;2024-01-15T02:08:05;3.50;77.10
78649;DHT22;67962;47.310;9.642;2024-01-15T02:10:31;3.50;77.10
78649;DHT22;67962;47.310;9.642;2024-01-15T02:12:58;3.50;76.90
78649;DHT22;67962;47.310;9.642;2024-01-15T02:15:23;3.40;77.20
78649;DHT22;67962;47.310;9.642;2024-01-15T02:17:59;3.30;77.30
78649;DHT22;67962;47.310;9.642;2024-01-15T02:20:25;3.30;77.70
78649;DHT22;67962;47.310;9.642;2024-01-15T02:22:51;3.30;77.80
78649;DHT22;67962;47.310;9.642;2024-01-15T02:25:17;3.30;77.90
78649;DHT22;67962;47.310;9.642;2024-01-15T02:27:44;3.20;78.20
78649;DHT22;67962;47.310;9.642;2024-01-15T02:30:12;3.20;78.20
78649;DHT22;67962;47.310;9.642;2024-01-15T02:32:38;3.20;78.00
78649;DHT22;67962;47.310;9.642;2024-01-15T02:35:04;3.20;78.00
78649;DHT22;67962;47.310;9.642;2024-01-15T02:37:30;3.20;78.00
78649;DHT22;67962;47.310;9.642;2024-01-15T02:39:56;3.30;78.00
78649;DHT22;67962;47.310;9.642;2024-01-15T02:42:21;3.30;77.80
78649;DHT22;67962;47.310;9.642;2024-01-15T02:44:47;3.20;77.90
78649;DHT22;67962;47.310;9.642;2024-01-15T02:47:14;3.30;77.90
78649;DHT22;67962;47.310;9.642;2024-01-15T02:49:40;3.30;77.70
78649;DHT22;67962;47.310;9.642;2024-01-15T02:52:05;3.20;77.50
78649;DHT22;67962;47.310;9.642;2024-01-15T02:54:31;3.20;77.60
78649;DHT22;67962;47.310;9.642;2024-01-15T02:56:57;3.20;77.80
78649;DHT22;67962;47.310;9.642;2024-01-15T02:59:22;3.10;77.80
78649;DHT22;67962;47.310;9.642;2024-01-15T03:01:48;3.10;77.90
78649;DHT22;67962;47.310;9.642;2024-01-15T03:04:14;3.10;78.00
78649;DHT22;67962;47.310;9.642;2024-01-15T03:06:40;3.20;77.90
78649;DHT22;67962;47.310;9.642;2024-01-15T03:09:05;3.10;77.90
78649;DHT22;67962;47.310;9.642;2024-01-15T03:11:37;3.20;77.80
78649;DHT22;67962;47.310;9.642;2024-01-15T03:14:04;3.20;77.90
78649;DHT22;67962;47.310;9.642;2024-01-15T03:16:29;3.10;78.10
78649;DHT22;67962;47.310;9.642;2024-01-15T03:18:55;3.10;78.20
78649;DHT22;67962;47.310;9.642;2024-01-15T03:21:21;3.20;78.20
78649;DHT22;67962;47.310;9.642;2024-01-15T03:23:46;3.30;78.00
78649;DHT22;67962;47.310;9.642;2024-01-15T03:26:12;3.30;77.50
78649;DHT22;67962;47.310;9.642;2024-01-15T03:28:37;3.20;77.50
78649;DHT22;67962;47.310;9.642;2024-01-15T03:31:03;3.20;77.80
78649;DHT22;67962;47.310;9.642;2024-01-15T03:33:29;3.20;77.80
78649;DHT22;67962;47.310;9.642;2024-01-15T03:35:55;3.20;78.60
78649;DHT22;67962;47.310;9.642;2024-01-15T03:38:20;3.20;78.70
78649;DHT22;67962;47.310;9.642;2024-01-15T03:40:46;3.20;78.60
78649;DHT22;67962;47.310;9.642;2024-01-15T03:43:12;3.20;78.40
78649;DHT22;67962;47.310;9.642;2024-01-15T03:45:38;3.20;78.20
78649;DHT22;67962;47.310;9.642;2024-01-15T03:48:04;3.30;77.70
78649;DHT22;67962;47.310;9.642;2024-01-15T03:50:29;3.20;77.70
78649;DHT22;67962;47.310;9.642;2024-01-15T03:52:55;3.10;77.60
78649;DHT22;67962;47.310;9.642;2024-01-15T03:55:20;3.10;77.90
78649;DHT22;67962;47.310;9.642;2024-01-15T03:57:46;3.20;77.90
78649;DHT22;67962;47.310;9.642;2024-01-15T04:00:14;3.20;77.50
78649;DHT22;67962;47.310;9.642;2024-01-15T04:02:39;3.20;77.50
78649;DHT22;67962;47.310;9.642;2024-01-15T04:05:05;3.30;77.60
78649;DHT22;67962;47.310;9.642;2024-01-15T04:07:31;3.30;77.30
78649;DHT22;67962;47.310;9.642;2024-01-15T04:09:56;3.30;77.10
78649;DHT22;67962;47.310;9.642;2024-01-15T04:12:22;3.30;77.20
78649;DHT22;67962;47.310;9.642;2024-01-15T04:14:48;3.10;77.50
78649;DHT22;67962;47.310;9.642;2024-01-15T04:17:13;3.20;77.80
78649;DHT22;67962;47.310;9.642;2024-01-15T04:19:39;3.10;77.70
78649;DHT22;67962;47.310;9.642;2024-01-15T04:22:05;3.10;77.90
78649;DHT22;67962;47.310;9.642;2024-01-15T04:24:31;3.10;77.80
78649;DHT22;67962;47.310;9.642;2024-01-15T04:26:57;3.10;77.80
78649;DHT22;67962;47.310;9.642;2024-01-15T04:29:23;3.20;77.60
78649;DHT22;67962;47.310;9.642;2024-01-15T04:31:49;3.20;77.70
78649;DHT22;67962;47.310;9.642;2024-01-15T04:34:14;3.30;77.30
78649;DHT22;67962;47.310;9.642;2024-01-15T04:36:40;3.30;77.30
78649;DHT22;67962;47.310;9.642;2024-01-15T04:39:07;3.30;77.30
78649;DHT22;67962;47.310;9.642;2024-01-15T04:41:33;3.30;77.10
78649;DHT22;67962;47.310;9.642;2024-01-15T04:43:59;3.20;77.50
78649;DHT22;67962;47.310;9.642;2024-01-15T04:46:26;3.20;77.70
78649;DHT22;67962;47.310;9.642;2024-01-15T04:48:52;3.30;77.80
78649;DHT22;67962;47.310;9.642;2024-01-15T04:51:18;3.40;77.10
78649;DHT22;67962;47.310;9.642;2024-01-15T04:53:44;3.30;77.40
78649;DHT22;67962;47.310;9.642;2024-01-15T04:56:10;3.30;77.50
78649;DHT22;67962;47.310;9.642;2024-01-15T04:58:35;3.30;76.90
78649;DHT22;67962;47.310;9.642;2024-01-15T05:01:01;3.40;75.90
78649;DHT22;67962;47.310;9.642;2024-01-15T05:03:27;3.50;75.20
78649;DHT22;67962;47.310;9.642;2024-01-15T05:05:52;3.40;75.60
78649;DHT22;67962;47.310;9.642;2024-01-15T05:08:18;3.40;76.10
78649;DHT22;67962;47.310;9.642;2024-01-15T05:10:44;3.50;75.90
78649;DHT22;67962;47.310;9.642;2024-01-15T05:13:10;3.60;76.30
78649;DHT22;67962;47.310;9.642;2024-01-15T05:15:35;3.60;75.00
78649;DHT22;67962;47.310;9.642;2024-01-15T05:18:01;3.70;74.60
78649;DHT22;67962;47.310;9.642;2024-01-15T05:20:27;3.70;75.00
78649;DHT22;67962;47.310;9.642;2024-01-15T05:22:52;3.70;74.60
78649;DHT22;67962;47.310;9.642;2024-01-15T05:25:18;3.60;74.30
78649;DHT22;67962;47.310;9.642;2024-01-15T05:27:44;3.60;74.60
78649;DHT22;67962;47.310;9.642;2024-01-15T05:30:10;3.60;74.60
78649;DHT22;67962;47.310;9.642;2024-01-15T05:32:36;3.70;73.70
78649;DHT22;67962;47.310;9.642;2024-01-15T05:35:01;3.60;74.30
78649;DHT22;67962;47.310;9.642;2024-01-15T05:37:27;3.70;73.20
78649;DHT22;67962;47.310;9.642;2024-01-15T05:39:53;3.70;72.60
78649;DHT22;67962;47.310;9.642;2024-01-15T05:42:18;3.60;72.90
78649;DHT22;67962;47.310;9.642;2024-01-15T05:44:44;3.60;72.80
78649;DHT22;67962;47.310;9.642;2024-01-15T05:47:10;3.60;72.90
78649;DHT22;67962;47.310;9.642;2024-01-15T05:49:35;3.60;73.30
78649;DHT22;67962;47.310;9.642;2024-01-15T05:52:01;3.70;72.30
78649;DHT22;67962;47.310;9.642;2024-01-15T05:54:27;3.60;70.70
78649;DHT22;67962;47.310;9.642;2024-01-15T05:56:53;3.70;69.00
78649;DHT22;67962;47.310;9.642;2024-01-15T05:59:18;3.60;68.60
78649;DHT22;67962;47.310;9.642;2024-01-15T06:01:44;3.60;69.00
78649;DHT22;67962;47.310;9.642;2024-01-15T06:04:10;3.60;70.10
78649;DHT22;67962;47.310;9.642;2024-01-15T06:06:35;3.60;69.60
78649;DHT22;67962;47.310;9.642;2024-01-15T06:09:01;3.70;69.50
78649;DHT22;67962;47.310;9.642;2024-01-15T06:11:31;3.70;68.60
78649;DHT22;67962;47.310;9.642;2024-01-15T06:13:57;3.70;68.90
78649;DHT22;67962;47.310;9.642;2024-01-15T06:16:23;3.70;68.50
78649;DHT22;67962;47.310;9.642;2024-01-15T06:18:49;3.70;68.10
78649;DHT22;67962;47.310;9.642;2024-01-15T06:21:16;3.70;68.50
78649;DHT22;67962;47.310;9.642;2024-01-15T06:23:41;3.70;68.00
78649;DHT22;67962;47.310;9.642;2024-01-15T06:26:07;3.70;67.40
78649;DHT22;67962;47.310;9.642;2024-01-15T06:28:33;3.70;67.10
78649;DHT22;67962;47.310;9.642;2024-01-15T06:30:59;3.60;67.60
78649;DHT22;67962;47.310;9.642;2024-01-15T06:33:24;3.60;67.90
78649;DHT22;67962;47.310;9.642;2024-01-15T06:35:50;3.60;67.20
78649;DHT22;67962;47.310;9.642;2024-01-15T06:38:16;3.50;67.80
78649;DHT22;67962;47.310;9.642;2024-01-15T06:40:42;3.50;68.50
78649;DHT22;67962;47.310;9.642;2024-01-15T06:43:13;3.50;68.70
78649;DHT22;67962;47.310;9.642;2024-01-15T06:45:39;3.60;68.60
78649;DHT22;67962;47.310;9.642;2024-01-15T06:48:05;3.50;68.80
78649;DHT22;67962;47.310;9.642;2024-01-15T06:50:31;3.50;69.10
78649;DHT22;67962;47.310;9.642;2024-01-15T06:52:56;3.50;69.00
78649;DHT22;67962;47.310;9.642;2024-01-15T06:55:22;3.50;69.40
78649;DHT22;67962;47.310;9.642;2024-01-15T06:57:48;3.60;69.20
78649;DHT22;67962;47.310;9.642;2024-01-15T07:00:14;3.60;69.30
78649;DHT22;67962;47.310;9.642;2024-01-15T07:02:40;3.60;68.20
78649;DHT22;67962;47.310;9.642;2024-01-15T07:05:05;3.60;68.00
78649;DHT22;67962;47.310;9.642;2024-01-15T07:07:31;3.50;68.40
78649;DHT22;67962;47.310;9.642;2024-01-15T07:09:57;3.50;68.90
78649;DHT22;67962;47.310;9.642;2024-01-15T07:12:23;3.50;69.00
78649;DHT22;67962;47.310;9.642;2024-01-15T07:14:49;3.50;69.20
78649;DHT22;67962;47.310;9.642;2024-01-15T07:17:15;3.50;68.70
78649;DHT22;67962;47.310;9.642;2024-01-15T07:19:41;3.50;69.00
78649;DHT22;67962;47.310;9.642;2024-01-15T07:22:07;3.50;69.40
78649;DHT22;67962;47.310;9.642;2024-01-15T07:24:32;3.50;69.70
78649;DHT22;67962;47.310;9.642;2024-01-15T07:27:01;3.40;70.30
78649;DHT22;67962;47.310;9.642;2024-01-15T07:29:26;3.50;70.30
78649;DHT22;67962;47.310;9.642;2024-01-15T07:31:52;3.50;71.00
78649;DHT22;67962;47.310;9.642;2024-01-15T07:34:18;3.50;70.30
78649;DHT22;67962;47.310;9.642;2024-01-15T07:36:44;3.50;70.50
78649;DHT22;67962;47.310;9.642;2024-01-15T07:39:11;3.50;70.80
78649;DHT22;67962;47.310;9.642;2024-01-15T07:41:37;3.50;69.80
78649;DHT22;67962;47.310;9.642;2024-01-15T07:44:03;3.50;69.50
78649;DHT22;67962;47.310;9.642;2024-01-15T07:46:28;3.40;69.80
78649;DHT22;67962;47.310;9.642;2024-01-15T07:48:54;3.40;70.00
78649;DHT22;67962;47.310;9.642;2024-01-15T07:51:24;3.40;70.40
78649;DHT22;67962;47.310;9.642;2024-01-15T07:53:50;3.50;70.70
78649;DHT22;67962;47.310;9.642;2024-01-15T07:56:16;3.50;70.50
78649;DHT22;67962;47.310;9.642;2024-01-15T07:58:42;3.50;70.30
78649;DHT22;67962;47.310;9.642;2024-01-15T08:01:08;3.50;70.60
78649;DHT22;67962;47.310;9.642;2024-01-15T08:03:33;3.60;70.90
78649;DHT22;67962;47.310;9.642;2024-01-15T08:05:59;3.60;70.40
78649;DHT22;67962;47.310;9.642;2024-01-15T08:08:25;3.60;70.50
78649;DHT22;67962;47.310;9.642;2024-01-15T08:10:54;3.60;70.10
78649;DHT22;67962;47.310;9.642;2024-01-15T08:13:19;3.50;70.50
78649;DHT22;67962;47.310;9.642;2024-01-15T08:15:46;3.60;70.70
78649;DHT22;67962;47.310;9.642;2024-01-15T08:18:11;3.60;70.70
78649;DHT22;67962;47.310;9.642;2024-01-15T08:20:37;3.70;70.70
78649;DHT22;67962;47.310;9.642;2024-01-15T08:23:03;3.70;70.80
78649;DHT22;67962;47.310;9.642;2024-01-15T08:25:29;3.80;70.30
78649;DHT22;67962;47.310;9.642;2024-01-15T08:27:56;3.70;70.10
78649;DHT22;67962;47.310;9.642;2024-01-15T08:30:23;3.70;70.60
78649;DHT22;67962;47.310;9.642;2024-01-15T08:32:56;3.80;70.70
78649;DHT22;67962;47.310;9.642;2024-01-15T08:35:22;3.70;70.80
78649;DHT22;67962;47.310;9.642;2024-01-15T08:37:50;3.80;71.30
78649;DHT22;67962;47.310;9.642;2024-01-15T08:40:16;3.80;71.30
78649;DHT22;67962;47.310;9.642;2024-01-15T08:42:42;3.80;71.10
78649;DHT22;67962;47.310;9.642;2024-01-15T08:45:09;3.90;71.10
78649;DHT22;67962;47.310;9.642;2024-01-15T08:47:35;3.80;70.60
78649;DHT22;67962;47.310;9.642;2024-01-15T08:50:01;3.80;70.80
78649;DHT22;67962;47.310;9.642;2024-01-15T08:52:27;3.90;70.80
78649;DHT22;67962;47.310;9.642;2024-01-15T08:54:53;3.80;70.70
78649;DHT22;67962;47.310;9.642;2024-01-15T08:57:18;3.90;70.90
78649;DHT22;67962;47.310;9.642;2024-01-15T08:59:44;3.90;70.80
78649;DHT22;67962;47.310;9.642;2024-01-15T09:02:10;3.90;70.80
78649;DHT22;67962;47.310;9.642;2024-01-15T09:04:36;4.00;70.90
78649;DHT22;67962;47.310;9.642;2024-01-15T09:07:01;4.10;70.60
78649;DHT22;67962;47.310;9.642;2024-01-15T09:09:27;4.20;69.00
78649;DHT22;67962;47.310;9.642;2024-01-15T09:11:53;4.20;69.20
78649;DHT22;67962;47.310;9.642;2024-01-15T09:14:19;4.20;68.90
78649;DHT22;67962;47.310;9.642;2024-01-15T09:16:46;4.10;69.40
78649;DHT22;67962;47.310;9.642;2024-01-15T09:19:12;4.10;70.10
78649;DHT22;67962;47.310;9.642;2024-01-15T09:21:38;4.10;70.40
78649;DHT22;67962;47.310;9.642;2024-01-15T09:24:04;4.20;70.40
78649;DHT22;67962;47.310;9.642;2024-01-15T09:26:30;4.30;73.30
78649;DHT22;67962;47.310;9.642;2024-01-15T09:28:57;5.20;74.20
78649;DHT22;67962;47.310;9.642;2024-01-15T09:31:23;5.50;70.90
78649;DHT22;67962;47.310;9.642;2024-01-15T09:33:49;5.50;69.50
78649;DHT22;67962;47.310;9.642;2024-01-15T09:36:17;5.50;69.60
78649;DHT22;67962;47.310;9.642;2024-01-15T09:38:42;5.40;67.80
78649;DHT22;67962;47.310;9.642;2024-01-15T09:41:08;5.30;67.90
78649;DHT22;67962;47.310;9.642;2024-01-15T09:43:34;5.20;68.60
78649;DHT22;67962;47.310;9.642;2024-01-15T09:46:00;5.10;68.30
78649;DHT22;67962;47.310;9.642;2024-01-15T09:48:26;5.00;68.60
78649;DHT22;67962;47.310;9.642;2024-01-15T09:50:53;5.00;68.70
78649;DHT22;67962;47.310;9.642;2024-01-15T09:53:19;5.00;67.70
78649;DHT22;67962;47.310;9.642;2024-01-15T09:55:46;4.90;67.50
78649;DHT22;67962;47.310;9.642;2024-01-15T09:58:12;4.80;67.70
78649;DHT22;67962;47.310;9.642;2024-01-15T10:00:39;4.80;67.50
78649;DHT22;67962;47.310;9.642;2024-01-15T10:03:07;4.70;67.50
78649;DHT22;67962;47.310;9.642;2024-01-15T10:05:33;4.70;68.00
78649;DHT22;67962;47.310;9.642;2024-01-15T10:08:00;4.70;67.20
78649;DHT22;67962;47.310;9.642;2024-01-15T10:10:26;4.60;67.60
78649;DHT22;67962;47.310;9.642;2024-01-15T10:12:52;4.70;68.20
78649;DHT22;67962;47.310;9.642;2024-01-15T10:15:22;4.70;66.40
78649;DHT22;67962;47.310;9.642;2024-01-15T10:17:50;4.80;67.10
78649;DHT22;67962;47.310;9.642;2024-01-15T10:20:16;4.90;67.60
78649;DHT22;67962;47.310;9.642;2024-01-15T10:22:42;5.00;67.30
78649;DHT22;67962;47.310;9.642;2024-01-15T10:25:13;5.10;66.80
78649;DHT22;67962;47.310;9.642;2024-01-15T10:27:42;5.10;67.00
78649;DHT22;67962;47.310;9.642;2024-01-15T10:30:09;5.00;65.60
78649;DHT22;67962;47.310;9.642;2024-01-15T10:32:35;5.00;65.90
78649;DHT22;67962;47.310;9.642;2024-01-15T10:35:01;5.00;65.70
78649;DHT22;67962;47.310;9.642;2024-01-15T10:37:26;4.90;65.40
78649;DHT22;67962;47.310;9.642;2024-01-15T10:39:52;4.90;66.30
78649;DHT22;67962;47.310;9.642;2024-01-15T10:42:18;4.90;65.60
78649;DHT22;67962;47.310;9.642;2024-01-15T10:44:44;5.00;65.10
78649;DHT22;67962;47.310;9.642;2024-01-15T10:47:12;5.10;65.30
78649;DHT22;67962;47.310;9.642;2024-01-15T10:49:39;5.10;65.50
78649;DHT22;67962;47.310;9.642;2024-01-15T10:52:05;5.30;65.60
78649;DHT22;67962;47.310;9.642;2024-01-15T10:54:32;5.40;65.10
78649;DHT22;67962;47.310;9.642;2024-01-15T10:56:57;5.40;64.00
78649;DHT22;67962;47.310;9.642;2024-01-15T10:59:23;5.30;63.40
78649;DHT22;67962;47.310;9.642;2024-01-15T11:01:51;5.10;61.50
78649;DHT22;67962;47.310;9.642;2024-01-15T11:04:20;5.10;62.30
78649;DHT22;67962;47.310;9.642;2024-01-15T11:06:49;5.00;63.40
78649;DHT22;67962;47.310;9.642;2024-01-15T11:09:15;5.10;63.60
78649;DHT22;67962;47.310;9.642;2024-01-15T11:11:46;5.20;63.60
78649;DHT22;67962;47.310;9.642;2024-01-15T11:14:41;5.30;64.30
78649;DHT22;67962;47.310;9.642;2024-01-15T11:17:10;5.50;63.70
78649;DHT22;67962;47.310;9.642;2024-01-15T11:19:42;5.50;63.50
78649;DHT22;67962;47.310;9.642;2024-01-15T11:25:19;5.60;63.40
78649;DHT22;67962;47.310;9.642;2024-01-15T11:27:51;5.70;60.80
78649;DHT22;67962;47.310;9.642;2024-01-15T11:30:18;5.60;60.60
78649;DHT22;67962;47.310;9.642;2024-01-15T11:32:45;5.50;61.00
78649;DHT22;67962;47.310;9.642;2024-01-15T11:35:12;5.50;60.90
78649;DHT22;67962;47.310;9.642;2024-01-15T11:40:21;5.30;57.80
78649;DHT22;67962;47.310;9.642;2024-01-15T11:42:48;5.10;58.70
78649;DHT22;67962;47.310;9.642;2024-01-15T11:45:20;5.10;58.20
78649;DHT22;67962;47.310;9.642;2024-01-15T11:50:21;5.00;59.10
78649;DHT22;67962;47.310;9.642;2024-01-15T11:53:02;5.10;59.00
78649;DHT22;67962;47.310;9.642;2024-01-15T11:55:39;5.20;57.80
78649;DHT22;67962;47.310;9.642;2024-01-15T11:58:11;5.00;57.80
78649;DHT22;67962;47.310;9.642;2024-01-15T12:00:52;5.10;58.90
78649;DHT22;67962;47.310;9.642;2024-01-15T12:03:24;5.10;57.90
78649;DHT22;67962;47.310;9.642;2024-01-15T12:05:50;5.10;58.70
78649;DHT22;67962;47.310;9.642;2024-01-15T12:08:21;5.20;57.70
78649;DHT22;67962;47.310;9.642;2024-01-15T12:10:47;5.10;58.30
78649;DHT22;67962;47.310;9.642;2024-01-15T12:13:14;5.20;59.10
78649;DHT22;67962;47.310;9.642;2024-01-15T12:15:44;5.40;59.20
78649;DHT22;67962;47.310;9.642;2024-01-15T12:18:12;5.60;59.80
78649;DHT22;67962;47.310;9.642;2024-01-15T12:20:39;5.80;59.20
78649;DHT22;67962;47.310;9.642;2024-01-15T12:23:05;6.00;59.30
78649;DHT22;67962;47.310;9.642;2024-01-15T12:25:34;6.20;59.00
78649;DHT22;67962;47.310;9.642;2024-01-15T12:28:00;6.30;58.50
78649;DHT22;67962;47.310;9.642;2024-01-15T12:30:27;6.30;59.60
78649;DHT22;67962;47.310;9.642;2024-01-15T12:32:54;6.30;60.20
78649;DHT22;67962;47.310;9.642;2024-01-15T12:35:20;6.10;61.30
78649;DHT22;67962;47.310;9.642;2024-01-15T12:37:47;6.00;63.10
78649;DHT22;67962;47.310;9.642;2024-01-15T12:40:13;5.90;63.40
78649;DHT22;67962;47.310;9.642;2024-01-15T12:42:43;5.80;64.00
78649;DHT22;67962;47.310;9.642;2024-01-15T12:45:11;5.60;64.60
78649;DHT22;67962;47.310;9.642;2024-01-15T12:47:37;5.60;65.20
78649;DHT22;67962;47.310;9.642;2024-01-15T12:50:08;5.50;65.30
78649;DHT22;67962;47.310;9.642;2024-01-15T12:52:34;5.40;65.80
78649;DHT22;67962;47.310;9.642;2024-01-15T12:55:00;5.30;66.20
78649;DHT22;67962;47.310;9.642;2024-01-15T12:57:26;5.10;65.90
78649;DHT22;67962;47.310;9.642;2024-01-15T12:59:54;5.00;66.40
78649;DHT22;67962;47.310;9.642;2024-01-15T13:02:20;4.90;66.40
78649;DHT22;67962;47.310;9.642;2024-01-15T13:04:45;4.80;66.40
78649;DHT22;67962;47.310;9.642;2024-01-15T13:07:11;4.70;67.10
78649;DHT22;67962;47.310;9.642;2024-01-15T13:09:37;4.60;67.30
78649;DHT22;67962;47.310;9.642;2024-01-15T13:12:02;4.60;67.30
78649;DHT22;67962;47.310;9.642;2024-01-15T13:14:28;4.50;67.30
78649;DHT22;67962;47.310;9.642;2024-01-15T13:16:54;4.50;67.20
78649;DHT22;67962;47.310;9.642;2024-01-15T13:19:21;4.50;67.30
78649;DHT22;67962;47.310;9.642;2024-01-15T13:21:47;4.60;67.50
78649;DHT22;67962;47.310;9.642;2024-01-15T13:24:13;4.50;68.00
78649;DHT22;67962;47.310;9.642;2024-01-15T13:26:39;4.30;68.10
78649;DHT22;67962;47.310;9.642;2024-01-15T13:29:05;4.30;64.60
78649;DHT22;67962;47.310;9.642;2024-01-15T13:31:31;4.40;63.40
78649;DHT22;67962;47.310;9.642;2024-01-15T13:33:57;4.50;62.60
78649;DHT22;67962;47.310;9.642;2024-01-15T13:36:23;4.50;62.30
78649;DHT22;67962;47.310;9.642;2024-01-15T13:38:50;4.60;62.40
78649;DHT22;67962;47.310;9.642;2024-01-15T13:41:17;4.60;62.80
78649;DHT22;67962;47.310;9.642;2024-01-15T13:43:45;4.70;64.00
78649;DHT22;67962;47.310;9.642;2024-01-15T13:46:11;4.80;64.70
78649;DHT22;67962;47.310;9.642;2024-01-15T13:48:37;4.80;65.20
78649;DHT22;67962;47.310;9.642;2024-01-15T13:51:03;4.80;64.90
78649;DHT22;67962;47.310;9.642;2024-01-15T13:53:28;4.70;64.20
78649;DHT22;67962;47.310;9.642;2024-01-15T13:55:55;4.70;64.20
78649;DHT22;67962;47.310;9.642;2024-01-15T13:58:20;4.70;65.00
78649;DHT22;67962;47.310;9.642;2024-01-15T14:00:47;4.60;65.90
78649;DHT22;67962;47.310;9.642;2024-01-15T14:03:14;4.60;66.50
78649;DHT22;67962;47.310;9.642;2024-01-15T14:05:40;4.60;66.60
78649;DHT22;67962;47.310;9.642;2024-01-15T14:08:06;4.60;65.10
78649;DHT22;67962;47.310;9.642;2024-01-15T14:10:31;4.60;62.90
78649;DHT22;67962;47.310;9.642;2024-01-15T14:12:57;4.50;61.80
78649;DHT22;67962;47.310;9.642;2024-01-15T14:15:23;4.50;62.00
78649;DHT22;67962;47.310;9.642;2024-01-15T14:17:49;4.50;63.40
78649;DHT22;67962;47.310;9.642;2024-01-15T14:20:15;4.50;63.50
78649;DHT22;67962;47.310;9.642;2024-01-15T14:22:41;4.60;63.20
78649;DHT22;67962;47.310;9.642;2024-01-15T14:25:07;4.80;60.00
78649;DHT22;67962;47.310;9.642;2024-01-15T14:27:33;4.80;59.50
78649;DHT22;67962;47.310;9.642;2024-01-15T14:29:59;4.80;59.40
78649;DHT22;67962;47.310;9.642;2024-01-15T14:32:24;4.80;60.30
78649;DHT22;67962;47.310;9.642;2024-01-15T14:34:50;4.80;61.00
78649;DHT22;67962;47.310;9.642;2024-01-15T14:37:16;4.80;62.40
78649;DHT22;67962;47.310;9.642;2024-01-15T14:39:41;4.80;63.30
78649;DHT22;67962;47.310;9.642;2024-01-15T14:42:08;4.80;63.90
78649;DHT22;67962;47.310;9.642;2024-01-15T14:44:34;4.80;64.20
78649;DHT22;67962;47.310;9.642;2024-01-15T14:47:00;4.70;64.20
78649;DHT22;67962;47.310;9.642;2024-01-15T14:49:26;4.60;64.90
78649;DHT22;67962;47.310;9.642;2024-01-15T14:51:51;4.70;65.40
78649;DHT22;67962;47.310;9.642;2024-01-15T14:54:17;4.70;65.70
78649;DHT22;67962;47.310;9.642;2024-01-15T14:56:43;4.60;65.90
78649;DHT22;67962;47.310;9.642;2024-01-15T14:59:09;4.60;65.00
78649;DHT22;67962;47.310;9.642;2024-01-15T15:01:35;4.60;65.30
78649;DHT22;67962;47.310;9.642;2024-01-15T15:04:00;4.70;62.50
78649;DHT22;67962;47.310;9.642;2024-01-15T15:06:26;4.70;62.90
78649;DHT22;67962;47.310;9.642;2024-01-15T15:08:53;4.70;63.00
78649;DHT22;67962;47.310;9.642;2024-01-15T15:11:25;4.70;63.20
78649;DHT22;67962;47.310;9.642;2024-01-15T15:13:51;4.70;62.40
78649;DHT22;67962;47.310;9.642;2024-01-15T15:16:17;4.70;62.70
78649;DHT22;67962;47.310;9.642;2024-01-15T15:18:43;4.70;61.90
78649;DHT22;67962;47.310;9.642;2024-01-15T15:21:09;4.70;61.60
78649;DHT22;67962;47.310;9.642;2024-01-15T15:23:35;4.70;60.80
78649;DHT22;67962;47.310;9.642;2024-01-15T15:26:01;4.70;59.80
78649;DHT22;67962;47.310;9.642;2024-01-15T15:28:27;4.70;59.40
78649;DHT22;67962;47.310;9.642;2024-01-15T15:30:53;4.70;59.20
78649;DHT22;67962;47.310;9.642;2024-01-15T15:33:18;4.60;59.90
78649;DHT22;67962;47.310;9.642;2024-01-15T15:35:44;4.60;60.40
78649;DHT22;67962;47.310;9.642;2024-01-15T15:38:10;4.70;58.70
78649;DHT22;67962;47.310;9.642;2024-01-15T15:40:35;4.70;59.00
78649;DHT22;67962;47.310;9.642;2024-01-15T15:43:01;4.70;59.90
78649;DHT22;67962;47.310;9.642;2024-01-15T15:45:27;4.80;61.00
78649;DHT22;67962;47.310;9.642;2024-01-15T15:47:53;4.80;60.70